Time;durP1;ratioP1;P1;durP2;ratioP2;P2;SDS_P1;SDS_P2;PMS_P1;PMS_P2;Temp;Humidity;BMP_temperature;BMP_pressure;BME280_temperature;BME280_humidity;BME280_pressure;Samples;Min_cycle;Max_cycle;Signal;HPM_P1;HPM_P2
2022/03/25 00:01:07;;;;;;;11.23;5.13;;;;;;;2.47;84.62;101428.88;5102131;28;20039;-81
2022/03/25 00:03:33;;;;;;;7.78;5.03;;;;;;;2.45;84.75;101432.84;5102817;28;20040;-80
2022/03/25 00:05:59;;;;;;;6.70;4.78;;;;;;;2.40;84.96;101431.56;5113390;28;20052;-81
2022/03/25 00:08:26;;;;;;;9.48;4.70;;;;;;;2.36;84.78;101426.78;5082675;28;20165;-80
2022/03/25 00:10:52;;;;;;;8.52;5.13;;;;;;;2.37;84.64;101425.72;5093460;28;20044;-81
2022/03/25 00:13:18;;;;;;;9.48;4.80;;;;;;;2.37;84.66;101433.84;5092820;28;20379;-81
2022/03/25 00:15:44;;;;;;;7.75;4.60;;;;;;;2.36;85.19;101426.78;5064599;28;20122;-80
2022/03/25 00:18:09;;;;;;;8.10;4.50;;;;;;;2.37;84.81;101425.72;5074239;28;20414;-81
2022/03/25 00:20:35;;;;;;;9.23;4.63;;;;;;;2.37;84.72;101425.72;5086229;28;20055;-81
2022/03/25 00:23:01;;;;;;;7.35;4.20;;;;;;;2.33;84.65;101425.31;5092552;28;20044;-80
2022/03/25 00:25:28;;;;;;;6.13;4.53;;;;;;;2.32;84.92;101425.53;5084210;28;20061;-79
2022/03/25 00:27:54;;;;;;;7.45;4.47;;;;;;;2.29;84.93;101425.94;5091582;28;20043;-83
2022/03/25 00:30:19;;;;;;;9.30;4.07;;;;;;;2.29;85.01;101415.13;5091579;28;20032;-82
2022/03/25 00:32:46;;;;;;;5.93;4.70;;;;;;;2.30;85.35;101423.03;5074179;28;20138;-82
2022/03/25 00:35:11;;;;;;;9.57;4.65;;;;;;;2.32;84.50;101412.81;5086653;28;20056;-82
2022/03/25 00:37:38;;;;;;;9.57;4.75;;;;;;;2.30;85.22;101427.63;5070942;28;20513;-82
2022/03/25 00:40:05;;;;;;;10.20;5.18;;;;;;;2.24;84.96;101423.84;5071860;28;20516;-80
2022/03/25 00:42:31;;;;;;;7.50;4.18;;;;;;;2.19;85.50;101417.38;5085708;28;20036;-80
2022/03/25 00:44:57;;;;;;;11.38;4.80;;;;;;;2.14;85.17;101417.19;5090502;28;20505;-82
2022/03/25 00:47:23;;;;;;;6.32;4.75;;;;;;;2.06;85.18;101410.91;5091527;28;20036;-81
2022/03/25 00:49:52;;;;;;;9.48;4.70;;;;;;;2.03;85.52;101416.75;5091523;28;20036;-81
2022/03/25 00:52:18;;;;;;;6.75;4.90;;;;;;;1.97;85.95;101414.03;5094801;28;20044;-82
2022/03/25 00:54:43;;;;;;;8.00;4.00;;;;;;;1.90;86.01;101407.75;5109121;28;20045;-81
2022/03/25 00:57:10;;;;;;;7.50;5.03;;;;;;;1.86;86.17;101414.63;5080061;28;20037;-82
2022/03/25 00:59:36;;;;;;;9.05;5.60;;;;;;;1.83;85.62;101409.63;5084676;28;20036;-82
2022/03/25 01:02:03;;;;;;;9.43;5.05;;;;;;;1.81;86.23;101415.25;5074162;28;20101;-81
2022/03/25 01:04:29;;;;;;;8.68;4.90;;;;;;;1.81;86.31;101397.13;5074016;28;20479;-81
2022/03/25 01:06:55;;;;;;;8.73;4.38;;;;;;;1.80;86.86;101398.19;5091641;28;20467;-82
2022/03/25 01:09:21;;;;;;;8.65;4.93;;;;;;;1.79;86.76;101395.69;5090988;28;20134;-82
2022/03/25 01:11:48;;;;;;;10.07;4.85;;;;;;;1.81;86.46;101399.84;5073558;28;20047;-82
2022/03/25 01:14:14;;;;;;;9.93;5.47;;;;;;;1.82;86.43;101395.28;5036984;28;20102;-81
2022/03/25 01:16:39;;;;;;;14.95;5.30;;;;;;;1.81;86.77;101393.59;5071048;28;20113;-81
2022/03/25 01:19:05;;;;;;;9.13;4.68;;;;;;;1.82;86.70;101400.69;5071242;28;20048;-81
2022/03/25 01:21:31;;;;;;;16.75;5.50;;;;;;;1.83;86.44;101402.34;5065694;28;20446;-80
2022/03/25 01:23:57;;;;;;;14.25;4.68;;;;;;;1.80;86.58;101402.75;5078641;28;20044;-81
2022/03/25 01:26:24;;;;;;;9.48;5.13;;;;;;;1.79;86.78;101399.22;5057253;28;20032;-81
2022/03/25 01:28:50;;;;;;;9.38;4.78;;;;;;;1.83;86.75;101405.06;5075266;28;21521;-81
2022/03/25 01:31:16;;;;;;;10.18;4.95;;;;;;;1.84;86.73;101404.00;5076982;28;20454;-81
2022/03/25 01:33:42;;;;;;;11.13;5.90;;;;;;;1.82;86.98;101403.38;5096688;28;20587;-81
2022/03/25 01:36:09;;;;;;;13.45;6.00;;;;;;;1.80;86.83;101410.88;5073589;28;20040;-81
2022/03/25 01:38:34;;;;;;;8.10;5.25;;;;;;;1.78;86.54;101407.53;5091341;28;20040;-81
2022/03/25 01:41:00;;;;;;;11.50;5.10;;;;;;;1.84;86.43;101400.47;5091537;28;20490;-81
2022/03/25 01:43:26;;;;;;;15.10;5.50;;;;;;;1.89;86.98;101409.63;5057347;28;20046;-81
2022/03/25 01:45:53;;;;;;;14.20;5.93;;;;;;;1.87;86.87;101410.88;5064118;28;20044;-81
2022/03/25 01:48:21;;;;;;;9.85;5.25;;;;;;;1.87;86.98;101406.31;5091152;28;20097;-81
2022/03/25 01:50:47;;;;;;;12.27;5.78;;;;;;;1.93;86.67;101408.22;5097333;27;20038;-81
2022/03/25 01:53:18;;;;;;;10.35;5.57;;;;;;;1.95;86.63;101408.84;5131959;27;20039;-80
2022/03/25 01:55:57;;;;;;;11.35;5.38;;;;;;;1.93;86.64;101399.25;5090619;28;20473;-81
2022/03/25 01:58:28;;;;;;;10.00;5.68;;;;;;;1.91;86.78;101394.06;5073018;28;20047;-81
2022/03/25 02:01:02;;;;;;;10.10;4.90;;;;;;;1.90;85.94;101396.94;5075128;28;20040;-81
2022/03/25 02:03:28;;;;;;;10.77;5.38;;;;;;;1.89;86.36;101387.97;5092907;28;20047;-81
2022/03/25 02:05:56;;;;;;;10.65;5.22;;;;;;;1.94;86.26;101396.34;5092504;28;20044;-81
2022/03/25 02:08:21;;;;;;;8.50;4.72;;;;;;;1.96;86.59;101391.56;5072863;28;20394;-82
2022/03/25 02:10:47;;;;;;;11.77;6.05;;;;;;;1.98;86.40;101383.22;5073581;28;20040;-81
2022/03/25 02:13:13;;;;;;;15.38;6.45;;;;;;;2.02;86.11;101388.00;5056403;28;20040;-81
2022/03/25 02:15:43;;;;;;;15.60;6.10;;;;;;;2.02;86.38;101388.00;5074352;28;20032;-81
2022/03/25 02:18:14;;;;;;;10.30;5.70;;;;;;;2.02;86.08;101387.19;5073505;28;20079;-81
2022/03/25 02:20:42;;;;;;;13.02;5.78;;;;;;;2.06;86.16;101383.84;5056179;28;20032;-81
2022/03/25 02:23:10;;;;;;;12.43;5.13;;;;;;;2.08;85.74;101381.78;5056527;28;20040;-80
2022/03/25 02:25:37;;;;;;;10.20;6.00;;;;;;;2.06;86.17;101388.41;5092398;28;20040;-82
2022/03/25 02:28:04;;;;;;;10.38;6.05;;;;;;;2.00;86.04;101381.97;5089660;28;20119;-81
2022/03/25 02:30:33;;;;;;;9.93;5.65;;;;;;;1.97;86.22;101378.84;5072664;28;20040;-81
2022/03/25 02:33:01;;;;;;;10.60;5.18;;;;;;;1.94;85.62;101381.97;5089507;28;20413;-80
2022/03/25 02:35:54;;;;;;;8.95;5.05;;;;;;;1.98;86.09;101370.53;5073102;28;20038;-81
2022/03/25 02:38:22;;;;;;;8.88;4.95;;;;;;;2.00;85.75;101370.31;5068666;28;20135;-80
2022/03/25 02:40:49;;;;;;;6.95;4.70;;;;;;;1.97;86.21;101370.72;5058506;28;20110;-80
2022/03/25 02:43:16;;;;;;;8.68;5.50;;;;;;;1.92;85.95;101371.34;5072500;28;20411;-80
2022/03/25 02:45:46;;;;;;;9.85;5.43;;;;;;;1.88;86.25;101370.06;5055867;28;20601;-80
2022/03/25 02:48:12;;;;;;;10.93;5.63;;;;;;;1.85;85.87;101373.19;5072447;28;20174;-81
2022/03/25 02:50:38;;;;;;;8.38;5.65;;;;;;;1.85;86.66;101375.06;5083097;28;20149;-81
2022/03/25 02:53:03;;;;;;;10.10;5.00;;;;;;;1.83;86.56;101371.75;5107614;28;20074;-81
2022/03/25 02:55:29;;;;;;;11.02;5.90;;;;;;;1.83;86.42;101364.47;5090807;28;20035;-81
2022/03/25 02:57:55;;;;;;;9.20;5.78;;;;;;;1.79;87.00;101365.91;5094215;28;20051;-81
2022/03/25 03:00:21;;;;;;;8.02;5.38;;;;;;;1.78;87.30;101370.50;5094985;28;20032;-81
2022/03/25 03:02:47;;;;;;;8.38;5.72;;;;;;;1.77;87.10;101362.59;5059426;28;20040;-82
2022/03/25 03:05:14;;;;;;;8.57;5.57;;;;;;;1.74;87.23;101354.88;5094258;28;20505;-81
2022/03/25 03:07:40;;;;;;;10.52;6.28;;;;;;;1.72;87.18;101360.47;5094060;28;20039;-81
2022/03/25 03:10:07;;;;;;;8.05;5.53;;;;;;;1.71;87.46;101357.97;5094360;28;20039;-81
2022/03/25 03:12:34;;;;;;;10.93;6.88;;;;;;;1.69;87.62;101355.47;5075755;28;20138;-80
2022/03/25 03:15:00;;;;;;;11.48;6.70;;;;;;;1.65;87.77;101351.53;5103627;28;20047;-80
2022/03/25 03:17:26;;;;;;;10.07;6.13;;;;;;;1.61;87.86;101347.56;5114264;28;20043;-81
2022/03/25 03:19:52;;;;;;;8.77;6.13;;;;;;;1.61;88.19;101350.28;5114464;28;20435;-81
2022/03/25 03:22:18;;;;;;;13.65;6.65;;;;;;;1.62;88.23;101349.22;5108357;28;20566;-81
2022/03/25 03:24:44;;;;;;;9.68;6.80;;;;;;;1.60;88.06;101345.06;5092369;28;20048;-81
2022/03/25 03:27:10;;;;;;;10.82;6.85;;;;;;;1.55;89.16;101337.56;5109373;28;20036;-80
2022/03/25 03:29:36;;;;;;;12.25;7.10;;;;;;;1.52;88.87;101337.97;5114491;28;20482;-81
2022/03/25 03:32:03;;;;;;;11.65;7.32;;;;;;;1.52;88.81;101340.66;5085770;28;20044;-82
2022/03/25 03:34:29;;;;;;;11.85;6.22;;;;;;;1.55;89.45;101342.97;5075811;28;20130;-81
2022/03/25 03:36:54;;;;;;;15.80;7.65;;;;;;;1.52;89.31;101336.09;5093902;28;20119;-81
2022/03/25 03:39:20;;;;;;;8.38;4.68;;;;;;;1.51;89.20;101331.72;5102747;28;20039;-80
2022/03/25 03:41:45;;;;;;;11.48;6.72;;;;;;;1.50;89.12;101332.75;5107254;27;20123;-82
2022/03/25 03:44:11;;;;;;;11.32;7.93;;;;;;;1.49;89.35;101333.81;5093283;28;20060;-81
2022/03/25 03:46:37;;;;;;;13.80;7.53;;;;;;;1.43;89.74;101317.56;5112993;27;20118;-81
2022/03/25 03:49:03;;;;;;;13.77;7.55;;;;;;;1.42;89.62;101322.16;5083847;28;20398;-82
2022/03/25 03:51:28;;;;;;;12.52;8.52;;;;;;;1.40;89.59;101321.53;5082434;28;20778;-80
2022/03/25 03:53:54;;;;;;;12.68;8.27;;;;;;;1.39;89.70;101321.69;5086661;28;20131;-82
2022/03/25 03:56:44;;;;;;;12.23;7.65;;;;;;;1.34;89.42;101313.38;5078975;28;20036;-81
2022/03/25 03:59:10;;;;;;;14.88;7.10;;;;;;;1.31;89.69;101311.09;5089725;28;20165;-82
2022/03/25 04:01:36;;;;;;;10.90;7.35;;;;;;;1.32;89.98;101310.88;5090935;28;20032;-82
2022/03/25 04:04:01;;;;;;;13.60;7.88;;;;;;;1.31;90.18;101303.81;5092881;28;20036;-82
2022/03/25 04:06:27;;;;;;;11.73;7.63;;;;;;;1.33;89.73;101301.72;5093239;28;20088;-82
2022/03/25 04:08:53;;;;;;;12.32;7.22;;;;;;;1.38;90.82;101295.69;5093326;28;20092;-82
2022/03/25 04:11:18;;;;;;;12.18;7.00;;;;;;;1.41;90.64;101292.59;5091160;28;20043;-80
2022/03/25 04:13:45;;;;;;;12.98;7.68;;;;;;;1.41;90.16;101288.03;5100591;28;20059;-78
2022/03/25 04:16:11;;;;;;;12.40;8.10;;;;;;;1.42;90.07;101291.56;5099414;28;20482;-80
2022/03/25 04:18:37;;;;;;;13.35;7.80;;;;;;;1.41;90.29;101290.75;5100565;28;20486;-79
2022/03/25 04:21:04;;;;;;;13.10;6.20;;;;;;;1.40;90.78;101294.47;5098815;28;20130;-80
2022/03/25 04:23:29;;;;;;;13.98;8.02;;;;;;;1.40;89.91;101302.59;5098610;28;20067;-80
2022/03/25 04:25:55;;;;;;;18.33;8.38;;;;;;;1.41;89.78;101296.16;5099714;28;20506;-79
2022/03/25 04:28:22;;;;;;;15.85;8.90;;;;;;;1.39;90.23;101303.63;5073432;28;20036;-80
2022/03/25 04:30:48;;;;;;;15.13;6.68;;;;;;;1.36;89.68;101293.19;5075647;28;20190;-80
2022/03/25 04:33:13;;;;;;;15.18;9.45;;;;;;;1.38;90.07;101293.00;5092281;28;20068;-80
2022/03/25 04:35:39;;;;;;;12.35;7.43;;;;;;;1.38;89.98;101288.41;5074291;28;20032;-80
2022/03/25 04:38:06;;;;;;;14.82;8.40;;;;;;;1.41;90.02;101279.91;5092436;28;20105;-81
2022/03/25 04:40:32;;;;;;;16.15;8.85;;;;;;;1.41;89.79;101282.63;5092029;28;20040;-81
2022/03/25 04:42:59;;;;;;;15.65;9.15;;;;;;;1.44;89.97;101281.38;5093438;28;20127;-81
2022/03/25 04:45:26;;;;;;;15.23;8.55;;;;;;;1.44;90.31;101276.81;5074895;28;20089;-81
2022/03/25 04:47:52;;;;;;;13.30;8.05;;;;;;;1.47;90.07;101270.16;5074133;28;20036;-81
2022/03/25 04:50:18;;;;;;;14.98;8.13;;;;;;;1.51;90.41;101269.53;5074039;28;20456;-80
2022/03/25 04:52:45;;;;;;;16.58;8.48;;;;;;;1.54;89.92;101272.84;5091827;28;20040;-81
2022/03/25 04:55:11;;;;;;;17.25;8.60;;;;;;;1.54;90.38;101280.97;5073787;28;20379;-80
2022/03/25 04:57:41;;;;;;;18.58;8.85;;;;;;;1.59;90.53;101281.19;5079635;28;20104;-80
2022/03/25 05:00:07;;;;;;;18.58;8.95;;;;;;;1.61;90.81;101274.53;5100228;28;20453;-81
2022/03/25 05:02:34;;;;;;;17.23;9.00;;;;;;;1.64;90.17;101276.81;5111567;28;20044;-80
2022/03/25 05:04:59;;;;;;;15.65;8.50;;;;;;;1.57;90.33;101270.59;5111973;28;20426;-79
2022/03/25 05:07:25;;;;;;;17.40;8.85;;;;;;;1.58;90.56;101272.25;5109905;28;20505;-81
2022/03/25 05:09:51;;;;;;;13.50;8.07;;;;;;;1.57;90.42;101267.06;5093137;28;20046;-81
2022/03/25 05:12:17;;;;;;;17.15;9.10;;;;;;;1.59;90.71;101270.38;5096146;28;20040;-81
2022/03/25 05:14:42;;;;;;;16.23;9.38;;;;;;;1.61;90.75;101269.13;5090136;28;20043;-80
2022/03/25 05:17:08;;;;;;;16.95;9.23;;;;;;;1.63;90.77;101261.63;5111789;28;20046;-81
2022/03/25 05:19:34;;;;;;;16.35;9.73;;;;;;;1.69;90.60;101265.38;5111843;28;20202;-80
2022/03/25 05:22:00;;;;;;;18.85;11.02;;;;;;;1.78;90.73;101264.16;5076673;28;20127;-79
2022/03/25 05:24:26;;;;;;;20.92;11.50;;;;;;;1.86;91.03;101258.50;5111412;28;20560;-80
2022/03/25 05:26:53;;;;;;;19.17;10.43;;;;;;;1.88;91.14;101261.00;5094703;28;20071;-80
2022/03/25 05:29:18;;;;;;;17.13;10.18;;;;;;;1.87;91.49;101262.88;5073286;28;20040;-79
2022/03/25 05:31:44;;;;;;;15.77;9.45;;;;;;;1.87;91.24;101260.16;5091798;28;20455;-81
2022/03/25 05:34:10;;;;;;;18.80;10.50;;;;;;;1.93;91.33;101253.94;5089259;28;20050;-82
2022/03/25 05:36:36;;;;;;;18.48;11.18;;;;;;;1.94;91.69;101250.19;5111783;28;20039;-82
2022/03/25 05:39:02;;;;;;;17.02;10.43;;;;;;;1.91;91.98;101256.03;5103302;28;20059;-80
2022/03/25 05:41:29;;;;;;;23.13;11.15;;;;;;;1.99;91.52;101250.38;5075796;28;20048;-81
2022/03/25 05:43:55;;;;;;;20.33;11.40;;;;;;;2.04;92.01;101247.88;5092253;28;20040;-80
2022/03/25 05:46:21;;;;;;;19.23;11.57;;;;;;;2.02;92.00;101252.66;5091296;28;20048;-81
2022/03/25 05:48:47;;;;;;;19.08;11.00;;;;;;;1.99;91.70;101238.72;5098981;28;20043;-81
2022/03/25 05:51:13;;;;;;;20.27;12.10;;;;;;;1.97;91.68;101238.94;5091002;28;20044;-80
2022/03/25 05:53:40;;;;;;;21.55;13.20;;;;;;;2.03;92.22;101240.78;5095906;28;20054;-75
2022/03/25 05:56:06;;;;;;;24.63;12.30;;;;;;;2.05;92.50;101246.00;5064188;28;20032;-81
2022/03/25 05:58:35;;;;;;;24.35;12.23;;;;;;;2.10;92.21;101238.94;5094302;28;20118;-83
2022/03/25 06:01:02;;;;;;;23.67;12.52;;;;;;;2.15;92.38;101229.34;5081288;28;20564;-79
2022/03/25 06:03:28;;;;;;;20.00;11.90;;;;;;;2.14;92.10;101222.25;5094880;28;20050;-78
2022/03/25 06:06:19;;;;;;;21.77;12.02;;;;;;;2.16;92.58;101225.59;5104855;28;20047;-78
2022/03/25 06:08:45;;;;;;;23.63;13.32;;;;;;;2.17;92.64;101227.25;5131405;27;20062;-79
2022/03/25 06:11:10;;;;;;;23.35;13.52;;;;;;;2.13;92.54;101229.56;5131337;28;20120;-79
2022/03/25 06:13:36;;;;;;;24.80;13.88;;;;;;;2.10;92.40;101221.84;5113168;28;20386;-79
2022/03/25 06:16:02;;;;;;;21.98;14.18;;;;;;;2.07;92.32;101223.09;5113101;28;20031;-78
2022/03/25 06:18:28;;;;;;;26.42;13.75;;;;;;;2.05;92.20;101214.34;5113241;28;20046;-79
2022/03/25 06:20:53;;;;;;;20.20;12.73;;;;;;;2.16;92.64;101212.88;5131818;28;20553;-79
2022/03/25 06:23:19;;;;;;;24.73;14.07;;;;;;;2.27;92.73;101206.00;5115129;28;20126;-79
2022/03/25 06:25:45;;;;;;;22.75;13.48;;;;;;;2.34;92.44;101201.38;5094178;28;20044;-80
2022/03/25 06:28:10;;;;;;;21.63;13.48;;;;;;;2.44;93.03;101204.47;5090648;28;20128;-80
2022/03/25 06:30:37;;;;;;;26.08;14.40;;;;;;;2.55;93.44;101203.78;5072559;28;20131;-79
2022/03/25 06:33:04;;;;;;;24.25;13.65;;;;;;;2.64;92.90;101198.97;5090555;28;20046;-80
2022/03/25 06:35:30;;;;;;;28.20;14.27;;;;;;;2.68;93.20;101192.06;5076648;28;20047;-79
2022/03/25 06:37:56;;;;;;;24.27;14.57;;;;;;;2.77;93.75;101198.06;5076487;28;20032;-80
2022/03/25 06:40:23;;;;;;;29.90;16.58;;;;;;;2.86;93.45;101191.34;5076159;28;20032;-79
2022/03/25 06:42:49;;;;;;;31.58;16.90;;;;;;;2.85;93.56;101190.53;5097977;28;20055;-79
2022/03/25 06:45:16;;;;;;;29.35;16.88;;;;;;;2.81;93.69;101181.19;5094310;28;20040;-79
2022/03/25 06:47:43;;;;;;;31.80;16.83;;;;;;;2.79;93.28;101180.56;5096123;28;20498;-79
2022/03/25 06:50:10;;;;;;;27.10;16.50;;;;;;;2.78;93.43;101180.75;5094734;28;20081;-81
2022/03/25 06:52:36;;;;;;;30.60;16.88;;;;;;;2.80;93.30;101181.41;5094253;28;20132;-81
2022/03/25 06:55:03;;;;;;;28.55;17.00;;;;;;;2.86;93.53;101166.97;5075777;28;20064;-80
2022/03/25 06:57:29;;;;;;;34.08;17.70;;;;;;;2.90;93.63;101168.19;5076043;28;20466;-80
2022/03/25 06:59:55;;;;;;;31.63;15.90;;;;;;;2.93;93.40;101168.56;5080136;28;20047;-79
2022/03/25 07:02:21;;;;;;;37.78;18.95;;;;;;;2.98;93.45;101176.91;5106060;28;20453;-79
2022/03/25 07:04:47;;;;;;;30.00;16.60;;;;;;;3.03;93.44;101165.41;5075885;28;20135;-83
2022/03/25 07:07:13;;;;;;;29.80;17.50;;;;;;;3.09;93.72;101160.97;5094200;28;20505;-79
2022/03/25 07:09:39;;;;;;;33.92;18.33;;;;;;;3.12;93.72;101157.81;5075683;28;20108;-80
2022/03/25 07:12:05;;;;;;;38.22;19.73;;;;;;;3.18;93.87;101146.94;5097497;28;20039;-80
2022/03/25 07:14:31;;;;;;;34.22;19.33;;;;;;;3.26;93.99;101146.66;5089334;28;20046;-79
2022/03/25 07:16:56;;;;;;;35.17;18.70;;;;;;;3.31;94.15;101129.75;5072125;28;20039;-76
2022/03/25 07:19:25;;;;;;;32.10;19.02;;;;;;;3.31;93.96;101130.56;5114010;28;20074;-77
2022/03/25 07:21:52;;;;;;;39.67;19.05;;;;;;;3.46;93.52;101129.38;5106613;28;20036;-76
2022/03/25 07:24:17;;;;;;;38.72;19.00;;;;;;;3.59;93.49;101124.66;5085369;28;20192;-78
2022/03/25 07:26:43;;;;;;;33.58;18.15;;;;;;;3.77;93.79;101123.88;5078867;28;20040;-79
2022/03/25 07:29:10;;;;;;;31.98;18.92;;;;;;;4.01;94.24;101118.63;5094650;28;20040;-78
2022/03/25 07:31:36;;;;;;;34.17;19.30;;;;;;;4.23;94.49;101104.34;5086930;28;20047;-78
2022/03/25 07:34:02;;;;;;;35.60;18.40;;;;;;;4.42;94.23;101104.31;5104769;28;20126;-79
2022/03/25 07:36:28;;;;;;;37.72;19.88;;;;;;;4.53;94.30;101098.94;5094380;28;20510;-80
2022/03/25 07:38:53;;;;;;;35.58;18.88;;;;;;;4.69;94.45;101093.94;5075643;28;20046;-79
2022/03/25 07:41:20;;;;;;;39.92;19.25;;;;;;;4.79;93.97;101094.19;5085703;28;20036;-80
2022/03/25 07:43:45;;;;;;;38.05;18.50;;;;;;;4.81;93.33;101090.16;5076377;28;20440;-79
2022/03/25 07:46:13;;;;;;;29.83;17.08;;;;;;;4.91;93.53;101080.63;5104290;28;20055;-80
2022/03/25 07:48:39;;;;;;;33.20;19.30;;;;;;;4.80;92.35;101069.47;5086424;28;20122;-79
2022/03/25 07:51:05;;;;;;;32.30;18.52;;;;;;;4.75;91.98;101082.94;5094509;28;20039;-78
2022/03/25 07:53:32;;;;;;;33.40;19.92;;;;;;;4.77;91.59;101077.28;5088196;28;20040;-77
2022/03/25 07:55:58;;;;;;;36.42;18.40;;;;;;;4.78;91.31;101084.38;5104390;28;20035;-79
2022/03/25 07:58:24;;;;;;;36.08;18.83;;;;;;;4.87;90.64;101077.56;5101810;28;20046;-78
2022/03/25 08:00:51;;;;;;;29.48;17.38;;;;;;;5.05;90.68;101077.47;5099588;28;20036;-78
2022/03/25 08:03:18;;;;;;;30.00;14.25;;;;;;;5.23;91.59;101065.66;5075261;28;20039;-78
2022/03/25 08:05:45;;;;;;;25.10;13.40;;;;;;;5.38;90.73;101068.75;5103721;28;20040;-79
2022/03/25 08:08:11;;;;;;;24.73;14.25;;;;;;;5.48;90.63;101081.75;5092741;28;20124;-79
2022/03/25 08:10:41;;;;;;;23.83;13.00;;;;;;;5.52;89.75;101072.03;5083098;28;20063;-80
2022/03/25 08:13:07;;;;;;;22.33;12.70;;;;;;;5.56;89.43;101075.97;5095912;28;20576;-78
2022/03/25 08:15:34;;;;;;;25.63;13.07;;;;;;;5.58;89.22;101070.28;5080572;28;20131;-80
2022/03/25 08:18:04;;;;;;;27.42;12.68;;;;;;;5.66;89.38;101069.91;5106813;28;20144;-80
2022/03/25 08:20:39;;;;;;;22.40;11.63;;;;;;;5.74;88.60;101067.66;5093312;28;20039;-80
2022/03/25 08:23:11;;;;;;;22.20;13.10;;;;;;;5.73;88.19;101074.19;5110556;28;20031;-80
2022/03/25 08:28:22;;;;;;;23.95;12.00;;;;;;;5.71;87.44;101068.13;5077205;28;20122;-80
2022/03/25 08:30:48;;;;;;;22.80;11.60;;;;;;;5.69;87.72;101067.53;5092740;28;20177;-80
2022/03/25 08:33:14;;;;;;;26.02;13.00;;;;;;;5.68;87.07;101074.06;5092232;28;20144;-81
2022/03/25 08:35:41;;;;;;;23.45;12.63;;;;;;;5.61;86.59;101072.53;5092760;28;20043;-81
2022/03/25 08:38:08;;;;;;;22.65;12.45;;;;;;;5.54;86.45;101069.09;5092298;28;20454;-81
2022/03/25 08:40:34;;;;;;;23.73;13.38;;;;;;;5.48;86.63;101070.03;5092560;28;20055;-80
2022/03/25 08:43:01;;;;;;;21.85;12.48;;;;;;;5.44;86.50;101065.06;5074199;28;20061;-81
2022/03/25 08:45:27;;;;;;;22.27;11.80;;;;;;;5.44;86.53;101062.34;5092480;28;20040;-81
2022/03/25 08:47:53;;;;;;;24.08;13.27;;;;;;;5.46;87.24;101067.56;5092317;28;20058;-80
2022/03/25 08:50:19;;;;;;;23.77;13.85;;;;;;;5.46;87.14;101062.13;5074266;28;20032;-81
2022/03/25 08:52:46;;;;;;;26.88;12.02;;;;;;;5.41;87.02;101049.22;5092208;28;20048;-81
2022/03/25 08:55:13;;;;;;;22.77;12.20;;;;;;;5.40;87.09;101050.28;5095514;28;20035;-81
2022/03/25 08:57:40;;;;;;;23.23;12.63;;;;;;;5.43;86.92;101049.81;5091386;28;20035;-81
2022/03/25 09:00:10;;;;;;;25.45;12.40;;;;;;;5.48;87.42;101045.53;5091813;28;20631;-80
2022/03/25 09:02:37;;;;;;;21.92;12.55;;;;;;;5.48;86.85;101030.03;5073984;28;20585;-80
2022/03/25 09:05:05;;;;;;;20.10;12.40;;;;;;;5.51;87.21;101010.50;5091806;28;20051;-79
2022/03/25 09:07:31;;;;;;;19.50;11.73;;;;;;;5.55;87.21;101006.22;5091789;28;20078;-80
2022/03/25 09:09:57;;;;;;;21.33;12.10;;;;;;;5.60;87.49;101005.53;5104756;28;20067;-81
2022/03/25 09:12:23;;;;;;;21.95;11.43;;;;;;;5.59;87.28;100996.53;5108883;28;20086;-80
2022/03/25 09:14:49;;;;;;;20.10;11.63;;;;;;;5.62;86.58;100993.34;5097632;28;20032;-79
2022/03/25 09:17:15;;;;;;;21.55;11.10;;;;;;;5.61;86.09;100990.84;5091853;28;20083;-80
2022/03/25 09:19:42;;;;;;;18.67;11.75;;;;;;;5.70;86.63;100984.78;5091689;28;20043;-80
2022/03/25 09:22:08;;;;;;;22.73;12.13;;;;;;;5.78;86.57;100974.59;5091613;28;20069;-80
2022/03/25 09:24:34;;;;;;;26.30;12.38;;;;;;;5.87;86.65;100962.25;5073224;28;20177;-80
2022/03/25 09:26:59;;;;;;;19.83;11.25;;;;;;;6.04;87.02;100963.97;5091493;28;20040;-81
2022/03/25 09:29:25;;;;;;;22.13;11.30;;;;;;;6.21;86.28;100960.47;5091717;28;20032;-81
2022/03/25 09:31:51;;;;;;;20.08;11.93;;;;;;;6.37;85.91;100951.50;5091164;28;20039;-81
2022/03/25 09:37:01;;;;;;;20.75;10.40;;;;;;;6.61;84.00;100935.84;5091615;28;20051;-80
2022/03/25 09:39:27;;;;;;;22.35;11.63;;;;;;;6.88;83.63;100936.81;5091862;28;20032;-80
2022/03/25 09:41:53;;;;;;;17.33;10.30;;;;;;;7.17;82.50;100939.44;5100868;28;20028;-81
2022/03/25 09:44:19;;;;;;;24.00;11.18;;;;;;;7.38;81.18;100935.91;5111945;28;20067;-80
2022/03/25 09:46:45;;;;;;;22.10;11.50;;;;;;;7.59;80.98;100933.44;5099553;28;20129;-80
2022/03/25 09:49:11;;;;;;;18.95;10.57;;;;;;;7.57;79.33;100934.50;5091975;28;20041;-80
2022/03/25 09:51:38;;;;;;;20.15;10.45;;;;;;;7.39;78.30;100928.53;5091759;28;20052;-80
2022/03/25 09:54:05;;;;;;;21.13;11.77;;;;;;;7.30;78.64;100930.06;5094066;28;20032;-81
2022/03/25 09:56:32;;;;;;;19.00;11.57;;;;;;;7.27;78.42;100928.63;5091539;28;20039;-79
2022/03/25 09:58:58;;;;;;;21.98;11.73;;;;;;;7.19;77.84;100920.91;5087659;28;20046;-79
2022/03/25 10:01:24;;;;;;;21.52;11.70;;;;;;;7.19;78.72;100923.63;5092571;28;20429;-80
2022/03/25 10:03:50;;;;;;;22.42;12.93;;;;;;;7.17;78.53;100917.59;5105360;28;20066;-80
2022/03/25 10:06:16;;;;;;;17.45;10.77;;;;;;;7.14;78.87;100905.28;5111419;28;20572;-79
2022/03/25 10:08:44;;;;;;;20.83;12.00;;;;;;;7.11;78.11;100904.94;5111390;28;20039;-81
2022/03/25 10:11:21;;;;;;;20.77;11.18;;;;;;;7.05;78.33;100895.03;5110561;28;20058;-81
2022/03/25 10:13:46;;;;;;;19.52;12.15;;;;;;;7.01;78.89;100885.72;5103276;28;20040;-80
2022/03/25 10:16:49;;;;;;;20.88;11.02;;;;;;;7.11;78.67;100886.66;5091193;28;20043;-80
2022/03/25 10:19:17;;;;;;;23.38;12.13;;;;;;;7.10;78.82;100879.56;5048652;28;20055;-82
2022/03/25 10:22:09;;;;;;;20.43;11.43;;;;;;;7.08;78.37;100876.25;5091049;28;20043;-81
2022/03/25 10:24:55;;;;;;;21.17;11.45;;;;;;;7.06;78.34;100872.13;5087077;28;20371;-80
2022/03/25 10:27:23;;;;;;;21.48;12.45;;;;;;;7.06;78.59;100859.31;5090899;28;20052;-80
2022/03/25 10:29:50;;;;;;;18.67;11.60;;;;;;;7.10;77.99;100862.34;5106748;28;20058;-81
2022/03/25 10:32:24;;;;;;;21.58;12.38;;;;;;;7.17;78.80;100852.94;5090588;28;20051;-80
2022/03/25 10:35:08;;;;;;;24.85;12.63;;;;;;;7.34;77.88;100852.03;5098980;28;20042;-80
2022/03/25 10:37:35;;;;;;;21.80;12.05;;;;;;;7.53;78.52;100850.63;5101090;28;20028;-80
2022/03/25 10:40:04;;;;;;;22.42;12.30;;;;;;;7.52;76.29;100843.53;5108591;28;20202;-79
2022/03/25 10:42:29;;;;;;;;;;;;;;;7.63;76.05;100847.16;5110866;28;20040;-79
2022/03/25 10:44:55;;;;;;;20.48;11.57;;;;;;;7.66;76.26;100842.03;5111143;28;19950;-80
2022/03/25 10:47:24;;;;;;;21.15;11.52;;;;;;;7.64;75.10;100840.66;5111110;28;20035;-80
2022/03/25 10:49:50;;;;;;;;;;;;;;;7.51;75.00;100823.56;5111901;28;20035;-80
2022/03/25 10:52:24;;;;;;;16.77;10.20;;;;;;;7.34;74.73;100825.56;5111783;28;19942;-82
2022/03/25 10:54:51;;;;;;;17.83;10.07;;;;;;;7.22;75.60;100803.03;5107870;28;20088;-79
2022/03/25 10:57:17;;;;;;;17.02;10.15;;;;;;;7.30;75.50;100796.31;5077829;28;20028;-80
2022/03/25 10:59:43;;;;;;;17.52;10.27;;;;;;;7.38;75.43;100796.66;5090282;28;20126;-79
2022/03/25 11:02:11;;;;;;;18.20;9.70;;;;;;;7.45;76.45;100788.25;5072503;28;20120;-80
2022/03/25 11:04:37;;;;;;;18.33;10.13;;;;;;;7.39;75.91;100787.41;5079126;28;20139;-79
2022/03/25 11:07:03;;;;;;;18.35;9.40;;;;;;;7.39;76.77;100781.13;5093727;28;20131;-80
2022/03/25 11:09:30;;;;;;;17.92;9.57;;;;;;;7.36;75.81;100773.44;5092850;28;20060;-80
2022/03/25 11:11:58;;;;;;;17.92;9.68;;;;;;;7.34;75.88;100770.97;5108631;28;20036;-79
2022/03/25 11:14:24;;;;;;;18.17;9.35;;;;;;;7.31;75.83;100770.66;5090271;28;20039;-79
2022/03/25 11:16:56;;;;;;;12.10;7.50;;;;;;;7.15;75.50;100750.56;5113562;28;20128;-78
2022/03/25 11:19:22;;;;;;;15.18;9.02;;;;;;;7.03;76.01;100753.41;5113814;28;20640;-81
2022/03/25 11:21:49;;;;;;;16.27;8.13;;;;;;;6.93;76.22;100745.09;5123361;27;20522;-79
2022/03/25 11:24:23;;;;;;;17.58;9.20;;;;;;;6.81;76.88;100730.78;5121527;27;20052;-80
2022/03/25 11:26:51;;;;;;;17.50;9.77;;;;;;;6.72;77.20;100724.94;5080248;28;20036;-81
2022/03/25 11:29:18;;;;;;;13.85;8.57;;;;;;;6.70;77.46;100718.91;5081078;28;20044;-80